PRIVATE WETTERSTATION BILLIGHEIM-ALLFELD                       ZURCK
Wetterdaten: Montag, 07.03.2022
Datum Zeit Temp. A. Temp. A. min Temp. A. max Feuchte A. Luftdruck Regen Wind Richtung Richtung Sonnenschein ET Solar Taupunkt Windchill Windben Empfang
07.03.2022 00:00 0,2 C 0,2 C 0,3 C 69 % 1023,3 hPa 0,0 l/m 0,0 km/h (0 Bft) N 0 0 min 0,025 mm 0 W/m -4,8 C 0,2 C 0,0 km/h (0 Bft) 100 %
07.03.2022 00:10 0,2 C 0,2 C 0,3 C 70 % 1023,3 hPa 0,0 l/m 0,0 km/h (0 Bft) N 0 0 min 0,000 mm 0 W/m -4,6 C 0,2 C 0,0 km/h (0 Bft) 100 %
07.03.2022 00:20 0,2 C 0,2 C 0,2 C 69 % 1023,3 hPa 0,0 l/m 0,0 km/h (0 Bft) N 0 0 min 0,000 mm 0 W/m -4,8 C 0,2 C 0,0 km/h (0 Bft) 100 %
07.03.2022 00:30 0,1 C 0,1 C 0,2 C 70 % 1023,3 hPa 0,0 l/m 0,0 km/h (0 Bft) N 0 0 min 0,000 mm 0 W/m -4,7 C 0,1 C 0,0 km/h (0 Bft) 100 %
07.03.2022 00:40 0,1 C 0,1 C 0,1 C 70 % 1023,3 hPa 0,0 l/m 0,0 km/h (0 Bft) N 0 0 min 0,000 mm 0 W/m -4,7 C 0,1 C 0,0 km/h (0 Bft) 91 %
07.03.2022 00:50 0,0 C 0,0 C 0,1 C 70 % 1023,3 hPa 0,0 l/m 0,0 km/h (0 Bft) N 0 0 min 0,000 mm 0 W/m -4,8 C 0,0 C 0,0 km/h (0 Bft) 100 %
07.03.2022 01:00 -0,1 C -0,1 C 0,0 C 67 % 1023,3 hPa 0,0 l/m 0,0 km/h (0 Bft) N 0 0 min 0,025 mm 0 W/m -5,5 C -0,1 C 0,0 km/h (0 Bft) 100 %
07.03.2022 01:10 -0,1 C -0,1 C -0,1 C 64 % 1023,3 hPa 0,0 l/m 0,0 km/h (0 Bft) N 0 0 min 0,000 mm 0 W/m -6,1 C -0,1 C 0,0 km/h (0 Bft) 100 %
07.03.2022 01:20 -0,1 C -0,1 C -0,1 C 63 % 1023,3 hPa 0,0 l/m 0,0 km/h (0 Bft) N-NO 22 0 min 0,000 mm 0 W/m -6,3 C -0,1 C 8,0 km/h (2 Bft) 100 %
07.03.2022 01:30 -0,1 C -0,1 C -0,1 C 63 % 1023,4 hPa 0,0 l/m 0,0 km/h (0 Bft) NO 45 0 min 0,000 mm 0 W/m -6,3 C -0,1 C 9,7 km/h (2 Bft) 100 %
07.03.2022 01:40 -0,1 C -0,1 C -0,1 C 63 % 1023,5 hPa 0,0 l/m 0,0 km/h (0 Bft) O-NO 67 0 min 0,000 mm 0 W/m -6,3 C -0,1 C 9,7 km/h (2 Bft) 100 %
07.03.2022 01:50 -0,2 C -0,2 C -0,1 C 66 % 1023,4 hPa 0,0 l/m 0,0 km/h (0 Bft) N-NO 22 0 min 0,000 mm 0 W/m -5,8 C -0,2 C 8,0 km/h (2 Bft) 100 %
07.03.2022 02:00 -0,2 C -0,2 C -0,2 C 71 % 1023,5 hPa 0,0 l/m 0,0 km/h (0 Bft) N-NO 22 0 min 0,025 mm 0 W/m -4,8 C -0,2 C 6,4 km/h (2 Bft) 100 %
07.03.2022 02:10 -0,4 C -0,4 C -0,2 C 72 % 1023,5 hPa 0,0 l/m 0,0 km/h (0 Bft) N 0 0 min 0,000 mm 0 W/m -4,8 C -0,4 C 0,0 km/h (0 Bft) 90 %
07.03.2022 02:20 -0,6 C -0,6 C -0,4 C 72 % 1023,6 hPa 0,0 l/m 0,0 km/h (0 Bft) NO 45 0 min 0,000 mm 0 W/m -5,0 C -0,6 C 6,4 km/h (2 Bft) 99 %
07.03.2022 02:30 -0,7 C -0,7 C -0,6 C 72 % 1023,4 hPa 0,0 l/m 0,0 km/h (0 Bft) N-NO 22 0 min 0,000 mm 0 W/m -5,1 C -0,7 C 4,8 km/h (1 Bft) 100 %
07.03.2022 02:40 -0,9 C -0,9 C -0,7 C 72 % 1023,3 hPa 0,0 l/m 0,0 km/h (0 Bft) N-NO 22 0 min 0,000 mm 0 W/m -5,3 C -0,9 C 4,8 km/h (1 Bft) 100 %
07.03.2022 02:50 -1,0 C -1,0 C -0,9 C 73 % 1023,4 hPa 0,0 l/m 0,0 km/h (0 Bft) NO 45 0 min 0,000 mm 0 W/m -5,2 C -1,0 C 4,8 km/h (1 Bft) 100 %
07.03.2022 03:00 -1,1 C -1,1 C -1,0 C 72 % 1023,3 hPa 0,0 l/m 0,0 km/h (0 Bft) N 0 0 min 0,000 mm 0 W/m -5,5 C -1,1 C 0,0 km/h (0 Bft) 100 %
07.03.2022 03:10 -1,1 C -1,1 C -1,1 C 73 % 1023,2 hPa 0,0 l/m 0,0 km/h (0 Bft) N 0 0 min 0,000 mm 0 W/m -5,3 C -1,1 C 0,0 km/h (0 Bft) 100 %
07.03.2022 03:20 -1,2 C -1,2 C -1,1 C 72 % 1023,1 hPa 0,0 l/m 0,0 km/h (0 Bft) N-NO 22 0 min 0,000 mm 0 W/m -5,6 C -1,2 C 6,4 km/h (2 Bft) 100 %
07.03.2022 03:30 -1,3 C -1,3 C -1,2 C 71 % 1023,1 hPa 0,0 l/m 1,6 km/h (1 Bft) NO 45 0 min 0,000 mm 0 W/m -5,9 C -1,3 C 8,0 km/h (2 Bft) 99 %
07.03.2022 03:40 -1,3 C -1,3 C -1,3 C 72 % 1023,1 hPa 0,0 l/m 0,0 km/h (0 Bft) NO 45 0 min 0,000 mm 0 W/m -5,7 C -1,3 C 3,2 km/h (1 Bft) 98 %
07.03.2022 03:50 -1,4 C -1,4 C -1,3 C 72 % 1023,0 hPa 0,0 l/m 0,0 km/h (0 Bft) NO 45 0 min 0,000 mm 0 W/m -5,8 C -1,4 C 6,4 km/h (2 Bft) 97 %
07.03.2022 04:00 -1,4 C -1,4 C -1,4 C 72 % 1023,1 hPa 0,0 l/m 0,0 km/h (0 Bft) N 0 0 min 0,000 mm 0 W/m -5,8 C -1,4 C 0,0 km/h (0 Bft) 98 %
07.03.2022 04:10 -1,5 C -1,5 C -1,4 C 72 % 1023,1 hPa 0,0 l/m 0,0 km/h (0 Bft) N 0 0 min 0,000 mm 0 W/m -5,9 C -1,5 C 0,0 km/h (0 Bft) 97 %
07.03.2022 04:20 -1,6 C -1,6 C -1,5 C 72 % 1023,1 hPa 0,0 l/m 0,0 km/h (0 Bft) N 0 0 min 0,000 mm 0 W/m -6,0 C -1,6 C 0,0 km/h (0 Bft) 98 %
07.03.2022 04:30 -1,6 C -1,6 C -1,6 C 71 % 1023,1 hPa 0,0 l/m 0,0 km/h (0 Bft) N 0 0 min 0,000 mm 0 W/m -6,2 C -1,6 C 0,0 km/h (0 Bft) 97 %
07.03.2022 04:40 -1,6 C -1,6 C -1,6 C 70 % 1023,2 hPa 0,0 l/m 0,0 km/h (0 Bft) N 0 0 min 0,000 mm 0 W/m -6,3 C -1,6 C 0,0 km/h (0 Bft) 87 %
07.03.2022 04:50 -1,7 C -1,7 C -1,6 C 70 % 1023,3 hPa 0,0 l/m 0,0 km/h (0 Bft) NO 45 0 min 0,000 mm 0 W/m -6,4 C -1,7 C 6,4 km/h (2 Bft) 98 %
07.03.2022 05:00 -1,7 C -1,7 C -1,7 C 71 % 1023,2 hPa 0,0 l/m 0,0 km/h (0 Bft) N 0 0 min 0,000 mm 0 W/m -6,2 C -1,7 C 0,0 km/h (0 Bft) 97 %
07.03.2022 05:10 -1,7 C -1,7 C -1,7 C 71 % 1023,4 hPa 0,0 l/m 0,0 km/h (0 Bft) N 0 0 min 0,000 mm 0 W/m -6,2 C -1,7 C 0,0 km/h (0 Bft) 98 %
07.03.2022 05:20 -1,7 C -1,7 C -1,7 C 71 % 1023,3 hPa 0,0 l/m 0,0 km/h (0 Bft) N 0 0 min 0,000 mm 0 W/m -6,2 C -1,7 C 0,0 km/h (0 Bft) 97 %
07.03.2022 05:30 -1,7 C -1,7 C -1,7 C 71 % 1023,4 hPa 0,0 l/m 0,0 km/h (0 Bft) N 0 0 min 0,000 mm 0 W/m -6,2 C -1,7 C 0,0 km/h (0 Bft) 98 %
07.03.2022 05:40 -1,7 C -1,7 C -1,7 C 71 % 1023,5 hPa 0,0 l/m 0,0 km/h (0 Bft) NO 45 0 min 0,000 mm 0 W/m -6,2 C -1,7 C 4,8 km/h (1 Bft) 97 %
07.03.2022 05:50 -1,8 C -1,8 C -1,7 C 72 % 1023,6 hPa 0,0 l/m 0,0 km/h (0 Bft) N 0 0 min 0,000 mm 0 W/m -6,2 C -1,8 C 0,0 km/h (0 Bft) 98 %
07.03.2022 06:00 -1,8 C -1,8 C -1,7 C 72 % 1023,6 hPa 0,0 l/m 0,0 km/h (0 Bft) NO 45 0 min 0,000 mm 0 W/m -6,2 C -1,8 C 4,8 km/h (1 Bft) 98 %
07.03.2022 06:10 -1,8 C -1,8 C -1,7 C 71 % 1023,6 hPa 0,0 l/m 0,0 km/h (0 Bft) NO 45 0 min 0,000 mm 0 W/m -6,3 C -1,8 C 8,0 km/h (2 Bft) 97 %
07.03.2022 06:20 -1,8 C -1,8 C -1,8 C 72 % 1023,6 hPa 0,0 l/m 0,0 km/h (0 Bft) NO 45 0 min 0,000 mm 0 W/m -6,2 C -1,8 C 3,2 km/h (1 Bft) 98 %
07.03.2022 06:30 -1,8 C -1,9 C -1,8 C 71 % 1023,7 hPa 0,0 l/m 0,0 km/h (0 Bft) N 0 0 min 0,000 mm 0 W/m -6,3 C -1,8 C 0,0 km/h (0 Bft) 97 %
07.03.2022 06:40 -1,9 C -1,9 C -1,9 C 71 % 1023,8 hPa 0,0 l/m 0,0 km/h (0 Bft) N 360 0 min 0,000 mm 0 W/m -6,4 C -1,9 C 6,4 km/h (2 Bft) 98 %
07.03.2022 06:50 -1,9 C -1,9 C -1,9 C 70 % 1023,7 hPa 0,0 l/m 0,0 km/h (0 Bft) N 0 0 min 0,000 mm 0 W/m -6,6 C -1,9 C 0,0 km/h (0 Bft) 98 %
07.03.2022 07:00 -2,0 C -2,0 C -1,9 C 70 % 1023,8 hPa 0,0 l/m 0,0 km/h (0 Bft) N 0 0 min 0,000 mm 5 W/m -6,7 C -2,0 C 0,0 km/h (0 Bft) 98 %
07.03.2022 07:10 -2,1 C -2,1 C -2,0 C 71 % 1023,8 hPa 0,0 l/m 0,0 km/h (0 Bft) N 0 0 min 0,000 mm 14 W/m -6,6 C -2,1 C 0,0 km/h (0 Bft) 89 %
07.03.2022 07:20 -2,2 C -2,2 C -2,1 C 71 % 1023,8 hPa 0,0 l/m 0,0 km/h (0 Bft) N 0 0 min 0,000 mm 21 W/m -6,7 C -2,2 C 0,0 km/h (0 Bft) 97 %
07.03.2022 07:30 -2,2 C -2,3 C -2,2 C 72 % 1023,9 hPa 0,0 l/m 0,0 km/h (0 Bft) O 90 0 min 0,000 mm 28 W/m -6,5 C -2,2 C 4,8 km/h (1 Bft) 98 %
07.03.2022 07:40 -2,2 C -2,3 C -2,2 C 73 % 1024,0 hPa 0,0 l/m 0,0 km/h (0 Bft) O-NO 67 0 min 0,000 mm 44 W/m -6,4 C -2,2 C 1,6 km/h (1 Bft) 97 %
07.03.2022 07:50 -2,1 C -2,2 C -2,1 C 72 % 1024,1 hPa 0,0 l/m 0,0 km/h (0 Bft) N 0 0 min 0,000 mm 58 W/m -6,5 C -2,1 C 0,0 km/h (0 Bft) 98 %
07.03.2022 08:00 -1,9 C -2,1 C -1,9 C 72 % 1024,3 hPa 0,0 l/m 1,6 km/h (1 Bft) NO 45 0 min 0,025 mm 69 W/m -6,3 C -1,9 C 9,7 km/h (2 Bft) 98 %
07.03.2022 08:10 -1,8 C -1,9 C -1,8 C 71 % 1024,1 hPa 0,0 l/m 1,6 km/h (1 Bft) NO 45 0 min 0,000 mm 77 W/m -6,3 C -1,8 C 8,0 km/h (2 Bft) 98 %
07.03.2022 08:20 -1,7 C -1,8 C -1,7 C 71 % 1024,3 hPa 0,0 l/m 0,0 km/h (0 Bft) NO 45 0 min 0,000 mm 100 W/m -6,2 C -1,7 C 8,0 km/h (2 Bft) 89 %
07.03.2022 08:30 -1,7 C -1,7 C -1,7 C 71 % 1024,4 hPa 0,0 l/m 1,6 km/h (1 Bft) NO 45 0 min 0,000 mm 120 W/m -6,2 C -1,7 C 11,3 km/h (2 Bft) 97 %
07.03.2022 08:40 -1,5 C -1,7 C -1,5 C 70 % 1024,4 hPa 0,0 l/m 0,0 km/h (0 Bft) NO 45 10 min 0,000 mm 167 W/m -6,2 C -1,5 C 8,0 km/h (2 Bft) 97 %
07.03.2022 08:50 -1,4 C -1,5 C -1,4 C 71 % 1024,6 hPa 0,0 l/m 1,6 km/h (1 Bft) NO 45 0 min 0,000 mm 151 W/m -6,0 C -1,4 C 9,7 km/h (2 Bft) 97 %
07.03.2022 09:00 -1,3 C -1,4 C -1,3 C 69 % 1024,7 hPa 0,0 l/m 1,6 km/h (1 Bft) NO 45 10 min 0,051 mm 158 W/m -6,2 C -1,3 C 8,0 km/h (2 Bft) 97 %
07.03.2022 09:10 -1,2 C -1,3 C -1,2 C 68 % 1024,7 hPa 0,0 l/m 3,2 km/h (1 Bft) NO 45 10 min 0,000 mm 304 W/m -6,3 C -1,2 C 11,3 km/h (2 Bft) 98 %
07.03.2022 09:20 -0,8 C -1,2 C -0,8 C 67 % 1024,9 hPa 0,0 l/m 1,6 km/h (1 Bft) NO 45 10 min 0,000 mm 325 W/m -6,1 C -0,8 C 11,3 km/h (2 Bft) 97 %
07.03.2022 09:30 -0,4 C -0,8 C -0,4 C 65 % 1024,9 hPa 0,0 l/m 3,2 km/h (1 Bft) NO 45 10 min 0,000 mm 355 W/m -6,2 C -0,4 C 16,1 km/h (3 Bft) 98 %
07.03.2022 09:40 -0,2 C -0,3 C -0,2 C 63 % 1025,0 hPa 0,0 l/m 3,2 km/h (1 Bft) NO 45 10 min 0,000 mm 376 W/m -6,4 C -0,2 C 14,5 km/h (3 Bft) 98 %
07.03.2022 09:50 0,0 C -0,2 C 0,0 C 62 % 1025,0 hPa 0,0 l/m 3,2 km/h (1 Bft) NO 45 10 min 0,000 mm 424 W/m -6,4 C 0,0 C 14,5 km/h (3 Bft) 98 %
07.03.2022 10:00 0,1 C 0,0 C 0,1 C 60 % 1025,0 hPa 0,0 l/m 3,2 km/h (1 Bft) O-NO 67 10 min 0,102 mm 476 W/m -6,7 C 0,1 C 19,3 km/h (3 Bft) 97 %
07.03.2022 10:10 0,6 C 0,1 C 0,6 C 60 % 1025,2 hPa 0,0 l/m 1,6 km/h (1 Bft) NO 45 10 min 0,000 mm 573 W/m -6,3 C 0,6 C 9,7 km/h (2 Bft) 98 %
07.03.2022 10:20 0,0 C 0,0 C 0,6 C 61 % 1025,3 hPa 0,0 l/m 3,2 km/h (1 Bft) NO 45 10 min 0,000 mm 192 W/m -6,6 C 0,0 C 9,7 km/h (2 Bft) 97 %
07.03.2022 10:30 -0,2 C -0,2 C 0,0 C 61 % 1025,3 hPa 0,0 l/m 1,6 km/h (1 Bft) NO 45 10 min 0,000 mm 221 W/m -6,8 C -0,2 C 11,3 km/h (2 Bft) 98 %
07.03.2022 10:40 -0,2 C -0,2 C -0,2 C 59 % 1025,3 hPa 0,0 l/m 1,6 km/h (1 Bft) NO 45 10 min 0,000 mm 221 W/m -7,2 C -0,2 C 14,5 km/h (3 Bft) 97 %
07.03.2022 10:50 -0,1 C -0,2 C -0,1 C 58 % 1025,2 hPa 0,0 l/m 1,6 km/h (1 Bft) NO 45 10 min 0,000 mm 373 W/m -7,3 C -0,1 C 9,7 km/h (2 Bft) 98 %
07.03.2022 11:00 -0,1 C -0,2 C -0,1 C 57 % 1025,3 hPa 0,0 l/m 1,6 km/h (1 Bft) NO 45 10 min 0,102 mm 271 W/m -7,6 C -0,1 C 9,7 km/h (2 Bft) 98 %
07.03.2022 11:10 0,3 C -0,1 C 0,3 C 58 % 1025,3 hPa 0,0 l/m 1,6 km/h (1 Bft) NO 45 10 min 0,000 mm 568 W/m -7,0 C 0,3 C 8,0 km/h (2 Bft) 97 %
07.03.2022 11:20 1,0 C 0,3 C 1,0 C 56 % 1025,2 hPa 0,0 l/m 0,0 km/h (0 Bft) NO 45 10 min 0,000 mm 564 W/m -6,8 C 1,0 C 9,7 km/h (2 Bft) 98 %
07.03.2022 11:30 1,3 C 1,0 C 1,3 C 57 % 1025,2 hPa 0,0 l/m 1,6 km/h (1 Bft) NO 45 10 min 0,000 mm 568 W/m -6,3 C 1,3 C 9,7 km/h (2 Bft) 98 %
07.03.2022 11:40 1,4 C 1,3 C 1,4 C 52 % 1025,1 hPa 0,0 l/m 8,0 km/h (2 Bft) O-SO 112 10 min 0,000 mm 561 W/m -7,4 C -0,2 C 20,9 km/h (4 Bft) 98 %
07.03.2022 11:50 1,7 C 1,3 C 1,7 C 53 % 1025,1 hPa 0,0 l/m 6,4 km/h (2 Bft) O-SO 112 10 min 0,000 mm 575 W/m -6,8 C 1,7 C 24,1 km/h (4 Bft) 98 %
07.03.2022 12:00 2,1 C 1,7 C 2,1 C 51 % 1025,3 hPa 0,0 l/m 3,2 km/h (1 Bft) O 90 10 min 0,203 mm 575 W/m -7,0 C 2,1 C 19,3 km/h (3 Bft) 97 %
07.03.2022 12:10 2,4 C 2,1 C 2,4 C 50 % 1025,1 hPa 0,0 l/m 3,2 km/h (1 Bft) N-NO 22 10 min 0,000 mm 582 W/m -6,9 C 2,4 C 14,5 km/h (3 Bft) 99 %
07.03.2022 12:20 2,4 C 2,4 C 2,5 C 52 % 1025,2 hPa 0,0 l/m 3,2 km/h (1 Bft) NO 45 10 min 0,000 mm 585 W/m -6,4 C 2,4 C 19,3 km/h (3 Bft) 100 %
07.03.2022 12:30 2,6 C 2,4 C 2,6 C 51 % 1025,0 hPa 0,0 l/m 4,8 km/h (1 Bft) NO 45 10 min 0,000 mm 578 W/m -6,5 C 2,6 C 19,3 km/h (3 Bft) 100 %
07.03.2022 12:40 2,6 C 2,6 C 2,6 C 51 % 1024,7 hPa 0,0 l/m 3,2 km/h (1 Bft) NO 45 10 min 0,000 mm 577 W/m -6,5 C 2,6 C 14,5 km/h (3 Bft) 100 %
07.03.2022 12:50 2,8 C 2,6 C 2,8 C 50 % 1024,6 hPa 0,0 l/m 3,1 km/h (1 Bft) NO 51 10 min 0,000 mm 568 W/m -6,6 C 2,8 C 17,7 km/h (3 Bft) 100 %
07.03.2022 13:00 2,8 C 2,8 C 2,8 C 50 % 1024,6 hPa 0,0 l/m 4,1 km/h (1 Bft) O 101 10 min 0,000 mm 571 W/m -6,6 C 2,8 C 20,9 km/h (4 Bft) 100 %
07.03.2022 13:10 2,8 C 2,7 C 2,9 C 50 % 1024,4 hPa 0,0 l/m 3,1 km/h (1 Bft) SO 134 10 min 0,204 mm 571 W/m -6,6 C 2,8 C 17,7 km/h (3 Bft) 100 %
07.03.2022 13:20 3,2 C 2,8 C 3,2 C 50 % 1024,4 hPa 0,0 l/m 2,2 km/h (1 Bft) O 81 10 min 0,000 mm 561 W/m -6,2 C 3,2 C 11,3 km/h (2 Bft) 100 %
07.03.2022 13:30 3,4 C 3,2 C 3,4 C 51 % 1024,3 hPa 0,0 l/m 2,9 km/h (1 Bft) NO 47 10 min 0,000 mm 550 W/m -5,8 C 3,4 C 14,5 km/h (3 Bft) 100 %
07.03.2022 13:40 3,2 C 3,2 C 3,4 C 50 % 1024,2 hPa 0,0 l/m 1,5 km/h (1 Bft) O-NO 61 10 min 0,000 mm 545 W/m -6,2 C 3,2 C 8,0 km/h (2 Bft) 100 %
07.03.2022 13:50 3,3 C 3,2 C 3,3 C 50 % 1024,2 hPa 0,0 l/m 1,7 km/h (1 Bft) O-NO 74 10 min 0,000 mm 531 W/m -6,1 C 3,3 C 9,7 km/h (2 Bft) 91 %
07.03.2022 14:00 3,4 C 3,3 C 3,4 C 49 % 1024,0 hPa 0,0 l/m 3,4 km/h (1 Bft) NO 46 10 min 0,229 mm 522 W/m -6,3 C 3,4 C 14,5 km/h (3 Bft) 100 %
07.03.2022 14:10 3,7 C 3,4 C 3,7 C 48 % 1023,8 hPa 0,0 l/m 2,4 km/h (1 Bft) SO 135 10 min 0,000 mm 508 W/m -6,3 C 3,7 C 20,9 km/h (4 Bft) 100 %
07.03.2022 14:20 3,7 C 3,6 C 3,8 C 49 % 1023,8 hPa 0,0 l/m 3,1 km/h (1 Bft) O 79 10 min 0,000 mm 490 W/m -6,0 C 3,7 C 11,3 km/h (2 Bft) 100 %
07.03.2022 14:30 4,1 C 3,7 C 4,1 C 49 % 1023,8 hPa 0,0 l/m 0,5 km/h (0 Bft) O-SO 111 10 min 0,000 mm 483 W/m -5,6 C 4,1 C 8,0 km/h (2 Bft) 100 %
07.03.2022 14:40 4,2 C 4,1 C 4,2 C 48 % 1023,5 hPa 0,0 l/m 1,6 km/h (1 Bft) N-NO 29 10 min 0,000 mm 466 W/m -5,8 C 4,2 C 17,7 km/h (3 Bft) 100 %
07.03.2022 14:50 3,9 C 3,9 C 4,3 C 48 % 1023,5 hPa 0,0 l/m 3,9 km/h (1 Bft) O 90 10 min 0,000 mm 443 W/m -6,1 C 3,9 C 22,5 km/h (4 Bft) 100 %
07.03.2022 15:00 3,9 C 3,8 C 3,9 C 49 % 1023,4 hPa 0,0 l/m 1,2 km/h (1 Bft) NO 39 10 min 0,203 mm 429 W/m -5,8 C 3,9 C 9,7 km/h (2 Bft) 100 %
07.03.2022 15:10 4,1 C 3,9 C 4,1 C 49 % 1023,3 hPa 0,0 l/m 1,1 km/h (1 Bft) NO 55 10 min 0,000 mm 411 W/m -5,6 C 4,1 C 11,3 km/h (2 Bft) 100 %
07.03.2022 15:20 4,4 C 4,1 C 4,4 C 47 % 1023,3 hPa 0,0 l/m 0,8 km/h (0 Bft) NO 54 10 min 0,000 mm 383 W/m -5,9 C 4,4 C 8,0 km/h (2 Bft) 99 %
07.03.2022 15:30 4,3 C 4,3 C 4,4 C 46 % 1023,4 hPa 0,0 l/m 1,6 km/h (1 Bft) O-NO 60 10 min 0,000 mm 355 W/m -6,3 C 4,3 C 11,3 km/h (2 Bft) 97 %
07.03.2022 15:40 4,3 C 4,2 C 4,3 C 48 % 1023,2 hPa 0,0 l/m 1,0 km/h (0 Bft) O-NO 59 10 min 0,000 mm 339 W/m -5,7 C 4,3 C 14,5 km/h (3 Bft) 97 %
07.03.2022 15:50 4,6 C 4,3 C 4,6 C 48 % 1023,1 hPa 0,0 l/m 0,6 km/h (0 Bft) NO 38 10 min 0,000 mm 313 W/m -5,4 C 4,6 C 6,4 km/h (2 Bft) 97 %
07.03.2022 16:00 4,6 C 4,6 C 4,6 C 48 % 1023,3 hPa 0,0 l/m 0,6 km/h (0 Bft) O-NO 78 10 min 0,152 mm 288 W/m -5,4 C 4,6 C 9,7 km/h (2 Bft) 98 %
07.03.2022 16:10 4,4 C 4,4 C 4,6 C 47 % 1023,2 hPa 0,0 l/m 0,5 km/h (0 Bft) O-SO 111 10 min 0,000 mm 267 W/m -5,9 C 4,4 C 8,0 km/h (2 Bft) 97 %
07.03.2022 16:20 4,3 C 4,3 C 4,4 C 46 % 1023,2 hPa 0,0 l/m 0,2 km/h (0 Bft) O-NO 65 10 min 0,000 mm 241 W/m -6,3 C 4,3 C 6,4 km/h (2 Bft) 98 %
07.03.2022 16:30 4,2 C 4,2 C 4,3 C 45 % 1023,3 hPa 0,0 l/m 1,1 km/h (1 Bft) O-NO 73 10 min 0,000 mm 216 W/m -6,7 C 4,2 C 11,3 km/h (2 Bft) 99 %
07.03.2022 16:40 4,0 C 4,0 C 4,2 C 46 % 1023,2 hPa 0,0 l/m 2,3 km/h (1 Bft) NO 34 10 min 0,000 mm 181 W/m -6,6 C 4,0 C 14,5 km/h (3 Bft) 99 %
07.03.2022 16:50 3,9 C 3,9 C 4,0 C 47 % 1023,3 hPa 0,0 l/m 0,6 km/h (0 Bft) NO 48 10 min 0,000 mm 153 W/m -6,4 C 3,9 C 11,3 km/h (2 Bft) 100 %
07.03.2022 17:00 3,8 C 3,8 C 3,9 C 47 % 1023,2 hPa 0,0 l/m 1,1 km/h (1 Bft) O-SO 116 0 min 0,076 mm 47 W/m -6,5 C 3,8 C 9,7 km/h (2 Bft) 100 %
07.03.2022 17:10 3,5 C 3,5 C 3,8 C 46 % 1023,2 hPa 0,0 l/m 1,2 km/h (1 Bft) SO 139 0 min 0,000 mm 42 W/m -7,0 C 3,5 C 9,7 km/h (2 Bft) 100 %
07.03.2022 17:20 3,3 C 3,3 C 3,6 C 48 % 1023,1 hPa 0,0 l/m 1,6 km/h (1 Bft) SO 125 0 min 0,000 mm 37 W/m -6,6 C 3,3 C 14,5 km/h (3 Bft) 100 %
07.03.2022 17:30 3,1 C 3,1 C 3,3 C 49 % 1023,1 hPa 0,0 l/m 0,0 km/h (0 Bft) S-SO 150 0 min 0,000 mm 32 W/m -6,6 C 3,1 C 1,6 km/h (1 Bft) 100 %
07.03.2022 17:40 2,9 C 2,9 C 3,1 C 49 % 1023,3 hPa 0,0 l/m 0,1 km/h (0 Bft) O-SO 108 0 min 0,000 mm 26 W/m -6,7 C 2,9 C 8,0 km/h (2 Bft) 100 %
07.03.2022 17:50 2,8 C 2,8 C 2,9 C 49 % 1023,2 hPa 0,0 l/m 0,1 km/h (0 Bft) O 84 0 min 0,000 mm 19 W/m -6,8 C 2,8 C 4,8 km/h (1 Bft) 100 %
07.03.2022 18:00 2,6 C 2,6 C 2,8 C 49 % 1023,4 hPa 0,0 l/m 0,0 km/h (0 Bft) O 84 0 min 0,026 mm 14 W/m -7,0 C 2,6 C 0,0 km/h (0 Bft) 100 %
07.03.2022 18:10 2,3 C 2,3 C 2,6 C 50 % 1023,5 hPa 0,0 l/m 0,0 km/h (0 Bft) O 84 0 min 0,000 mm 7 W/m -7,0 C 2,3 C 1,6 km/h (1 Bft) 100 %
07.03.2022 18:20 2,1 C 2,1 C 2,3 C 51 % 1023,6 hPa 0,0 l/m 0,0 km/h (0 Bft) O 84 0 min 0,000 mm 0 W/m -7,0 C 2,1 C 0,0 km/h (0 Bft) 100 %
07.03.2022 18:30 1,8 C 1,8 C 2,1 C 51 % 1023,6 hPa 0,0 l/m 0,0 km/h (0 Bft) O 84 0 min 0,000 mm 0 W/m -7,2 C 1,8 C 0,0 km/h (0 Bft) 100 %
07.03.2022 18:40 1,4 C 1,4 C 1,8 C 52 % 1023,7 hPa 0,0 l/m 0,0 km/h (0 Bft) O 84 0 min 0,000 mm 0 W/m -7,4 C 1,4 C 0,0 km/h (0 Bft) 100 %
07.03.2022 18:50 1,2 C 1,2 C 1,4 C 53 % 1023,7 hPa 0,0 l/m 0,0 km/h (0 Bft) O 84 0 min 0,000 mm 0 W/m -7,3 C 1,2 C 0,0 km/h (0 Bft) 91 %
07.03.2022 19:00 0,9 C 0,9 C 1,2 C 54 % 1023,8 hPa 0,0 l/m 0,0 km/h (0 Bft) O 84 0 min 0,000 mm 0 W/m -7,3 C 0,9 C 0,0 km/h (0 Bft) 100 %
07.03.2022 19:10 0,8 C 0,8 C 0,9 C 55 % 1023,9 hPa 0,0 l/m 0,0 km/h (0 Bft) O 84 0 min 0,000 mm 0 W/m -7,2 C 0,8 C 0,0 km/h (0 Bft) 100 %
07.03.2022 19:20 0,6 C 0,6 C 0,8 C 55 % 1024,0 hPa 0,0 l/m 0,0 km/h (0 Bft) O 84 0 min 0,000 mm 0 W/m -7,4 C 0,6 C 0,0 km/h (0 Bft) 100 %
07.03.2022 19:30 0,4 C 0,4 C 0,6 C 57 % 1024,0 hPa 0,0 l/m 0,0 km/h (0 Bft) O 84 0 min 0,000 mm 0 W/m -7,1 C 0,4 C 0,0 km/h (0 Bft) 100 %
07.03.2022 19:40 0,2 C 0,2 C 0,4 C 58 % 1024,1 hPa 0,0 l/m 0,0 km/h (0 Bft) O 84 0 min 0,000 mm 0 W/m -7,1 C 0,2 C 0,0 km/h (0 Bft) 100 %
07.03.2022 19:50 0,1 C 0,1 C 0,2 C 58 % 1024,2 hPa 0,0 l/m 0,0 km/h (0 Bft) O 84 0 min 0,000 mm 0 W/m -7,2 C 0,1 C 0,0 km/h (0 Bft) 100 %
07.03.2022 20:00 0,0 C 0,0 C 0,1 C 58 % 1024,3 hPa 0,0 l/m 0,0 km/h (0 Bft) O 84 0 min 0,025 mm 0 W/m -7,3 C 0,0 C 0,0 km/h (0 Bft) 99 %
07.03.2022 20:10 -0,1 C -0,1 C 0,1 C 60 % 1024,5 hPa 0,0 l/m 0,0 km/h (0 Bft) O 84 0 min 0,000 mm 0 W/m -6,9 C -0,1 C 0,0 km/h (0 Bft) 100 %
07.03.2022 20:20 -0,3 C -0,3 C -0,1 C 61 % 1024,6 hPa 0,0 l/m 0,0 km/h (0 Bft) O-NO 76 0 min 0,000 mm 0 W/m -6,9 C -0,3 C 0,0 km/h (0 Bft) 100 %
07.03.2022 20:30 -0,4 C -0,4 C -0,3 C 61 % 1024,7 hPa 0,0 l/m 0,0 km/h (0 Bft) O-NO 76 0 min 0,000 mm 0 W/m -7,0 C -0,4 C 0,0 km/h (0 Bft) 100 %
07.03.2022 20:40 -0,4 C -0,4 C -0,4 C 62 % 1024,6 hPa 0,0 l/m 0,0 km/h (0 Bft) O-NO 76 0 min 0,000 mm 0 W/m -6,8 C -0,4 C 0,0 km/h (0 Bft) 100 %
07.03.2022 20:50 -0,4 C -0,4 C -0,4 C 61 % 1024,7 hPa 0,0 l/m 0,0 km/h (0 Bft) O-NO 72 0 min 0,000 mm 0 W/m -7,0 C -0,4 C 1,6 km/h (1 Bft) 100 %
07.03.2022 21:00 -0,4 C -0,4 C -0,4 C 61 % 1024,7 hPa 0,0 l/m 0,0 km/h (0 Bft) O-NO 72 0 min 0,026 mm 0 W/m -7,0 C -0,4 C 0,0 km/h (0 Bft) 99 %
07.03.2022 21:10 -0,5 C -0,5 C -0,4 C 61 % 1024,7 hPa 0,0 l/m 0,0 km/h (0 Bft) O-NO 67 0 min 0,000 mm 0 W/m -7,1 C -0,5 C 1,6 km/h (1 Bft) 96 %
07.03.2022 21:20 -0,5 C -0,6 C -0,5 C 62 % 1024,8 hPa 0,0 l/m 0,0 km/h (0 Bft) N 0 0 min 0,000 mm 0 W/m -6,9 C -0,5 C 0,0 km/h (0 Bft) 89 %
07.03.2022 21:30 -0,5 C -0,5 C -0,5 C 61 % 1024,7 hPa 0,0 l/m 0,0 km/h (0 Bft) N 0 0 min 0,000 mm 0 W/m -7,1 C -0,5 C 0,0 km/h (0 Bft) 98 %
07.03.2022 21:40 -0,4 C -0,5 C -0,4 C 61 % 1024,7 hPa 0,0 l/m 0,0 km/h (0 Bft) N 0 0 min 0,000 mm 0 W/m -7,0 C -0,4 C 0,0 km/h (0 Bft) 98 %
07.03.2022 21:50 -0,4 C -0,4 C -0,3 C 61 % 1024,6 hPa 0,0 l/m 0,0 km/h (0 Bft) O-NO 67 0 min 0,000 mm 0 W/m -7,0 C -0,4 C 3,2 km/h (1 Bft) 100 %
07.03.2022 22:00 -0,3 C -0,4 C -0,3 C 61 % 1024,6 hPa 0,0 l/m 0,0 km/h (0 Bft) O 90 0 min 0,025 mm 0 W/m -6,9 C -0,3 C 6,4 km/h (2 Bft) 99 %
07.03.2022 22:10 -0,3 C -0,3 C -0,3 C 61 % 1024,8 hPa 0,0 l/m 0,0 km/h (0 Bft) O-NO 67 0 min 0,000 mm 0 W/m -6,9 C -0,3 C 3,2 km/h (1 Bft) 100 %
07.03.2022 22:20 -0,2 C -0,3 C -0,2 C 61 % 1024,6 hPa 0,0 l/m 0,0 km/h (0 Bft) O 90 0 min 0,000 mm 0 W/m -6,8 C -0,2 C 4,8 km/h (1 Bft) 99 %
07.03.2022 22:30 -0,2 C -0,2 C -0,1 C 60 % 1024,7 hPa 0,0 l/m 0,0 km/h (0 Bft) O-SO 112 0 min 0,000 mm 0 W/m -7,0 C -0,2 C 8,0 km/h (2 Bft) 89 %
07.03.2022 22:40 -0,2 C -0,2 C -0,1 C 60 % 1024,6 hPa 0,0 l/m 0,0 km/h (0 Bft) O 90 0 min 0,000 mm 0 W/m -7,0 C -0,2 C 3,2 km/h (1 Bft) 100 %
07.03.2022 22:50 -0,1 C -0,1 C -0,1 C 60 % 1024,5 hPa 0,0 l/m 0,0 km/h (0 Bft) O-NO 67 0 min 0,000 mm 0 W/m -6,9 C -0,1 C 8,0 km/h (2 Bft) 100 %
07.03.2022 23:00 -0,2 C -0,2 C -0,1 C 60 % 1024,5 hPa 0,0 l/m 0,0 km/h (0 Bft) O 90 0 min 0,025 mm 0 W/m -7,0 C -0,2 C 6,4 km/h (2 Bft) 100 %
07.03.2022 23:10 -0,3 C -0,3 C -0,2 C 61 % 1024,4 hPa 0,0 l/m 0,0 km/h (0 Bft) O 90 0 min 0,000 mm 0 W/m -6,9 C -0,3 C 3,2 km/h (1 Bft) 100 %
07.03.2022 23:20 -0,3 C -0,4 C -0,3 C 61 % 1024,3 hPa 0,0 l/m 0,0 km/h (0 Bft) O 90 0 min 0,000 mm 0 W/m -6,9 C -0,3 C 4,8 km/h (1 Bft) 100 %
07.03.2022 23:30 -0,6 C -0,6 C -0,4 C 62 % 1024,3 hPa 0,0 l/m 0,0 km/h (0 Bft) N 0 0 min 0,000 mm 0 W/m -7,0 C -0,6 C 0,0 km/h (0 Bft) 100 %
07.03.2022 23:40 -0,7 C -0,7 C -0,6 C 62 % 1024,4 hPa 0,0 l/m 0,0 km/h (0 Bft) N 0 0 min 0,000 mm 0 W/m -7,1 C -0,7 C 0,0 km/h (0 Bft) 100 %
07.03.2022 23:50 -0,9 C -0,9 C -0,7 C 63 % 1024,3 hPa 0,0 l/m 0,0 km/h (0 Bft) N 0 0 min 0,000 mm 0 W/m -7,0 C -0,9 C 0,0 km/h (0 Bft) 89 %
_ Min-Zeit 07:30 07:30 07:30 16:30 03:50 - 00:00 - - - - - 11:00 07:20 00:00 04:40
Minimum _ -2,3 C -2,3 C -2,2 C 45 % 1023,0 hPa - 0,0 km/h (0 Bft) - - - - - -7,6 C -2,2 C 0,0 km/h (0 Bft) 87 %
_ Max-Zeit 15:50 16:00 15:50 02:50 10:20 00:00 11:40 - - 08:40 14:00 12:20 00:10 15:50 11:50 00:00
Maximum _ 4,6 C 4,6 C 4,6 C 73 % 1025,3 hPa 0,0 l/m 8,0 km/h
O-SO (2 Bft)
- - 10 min 0,229 mm 585 W/m -4,6 C 4,6 C 24,1 km/h
SO (4 Bft)
100 %
Durchschnitt _ 0,5 C 0,4 C 0,6 C 61 % 1024,0 hPa #0,0 l/m 0,9 km/h (0 Bft) NO - #8:10 h #1,549 mm 316 W/m -6,4 C 0,5 C 6,4 km/h (2 Bft) 98 %
PRIVATE WETTERSTATION BILLIGHEIM-ALLFELD - www.neckar-odenwald-wetter.de - Holger Sonntag